sensor_id;sensor_type;location;lat;lon;timestamp;P1;durP1;ratioP1;P2;durP2;ratioP2
68577;SDS011;61668;45.388;11.784;2023-02-02T00:01:48;120.80;;;51.00;;
68577;SDS011;61668;45.388;11.784;2023-02-02T00:04:21;123.50;;;49.60;;
68577;SDS011;61668;45.388;11.784;2023-02-02T00:06:58;108.60;;;46.90;;
68577;SDS011;61668;45.388;11.784;2023-02-02T00:09:28;123.20;;;54.10;;
68577;SDS011;61668;45.388;11.784;2023-02-02T00:11:56;121.10;;;51.40;;
68577;SDS011;61668;45.388;11.784;2023-02-02T00:14:23;115.50;;;49.40;;
68577;SDS011;61668;45.388;11.784;2023-02-02T00:16:56;119.00;;;51.40;;
68577;SDS011;61668;45.388;11.784;2023-02-02T00:19:25;125.00;;;52.10;;
68577;SDS011;61668;45.388;11.784;2023-02-02T00:21:53;118.90;;;55.20;;
68577;SDS011;61668;45.388;11.784;2023-02-02T00:24:21;128.40;;;56.50;;
68577;SDS011;61668;45.388;11.784;2023-02-02T00:26:57;118.70;;;53.20;;
68577;SDS011;61668;45.388;11.784;2023-02-02T00:29:29;148.20;;;64.30;;
68577;SDS011;61668;45.388;11.784;2023-02-02T00:31:56;134.70;;;61.60;;
68577;SDS011;61668;45.388;11.784;2023-02-02T00:34:22;154.00;;;64.80;;
68577;SDS011;61668;45.388;11.784;2023-02-02T00:36:49;127.10;;;53.90;;
68577;SDS011;61668;45.388;11.784;2023-02-02T00:39:18;134.20;;;56.30;;
68577;SDS011;61668;45.388;11.784;2023-02-02T00:41:45;147.90;;;61.80;;
68577;SDS011;61668;45.388;11.784;2023-02-02T00:44:12;120.60;;;54.20;;
68577;SDS011;61668;45.388;11.784;2023-02-02T00:46:57;119.30;;;53.20;;
68577;SDS011;61668;45.388;11.784;2023-02-02T00:49:23;122.00;;;52.20;;
68577;SDS011;61668;45.388;11.784;2023-02-02T00:51:48;128.20;;;51.00;;
68577;SDS011;61668;45.388;11.784;2023-02-02T00:54:14;124.50;;;52.80;;
68577;SDS011;61668;45.388;11.784;2023-02-02T00:56:40;121.90;;;53.20;;
68577;SDS011;61668;45.388;11.784;2023-02-02T00:59:06;129.60;;;53.60;;
68577;SDS011;61668;45.388;11.784;2023-02-02T01:01:32;129.50;;;53.50;;
68577;SDS011;61668;45.388;11.784;2023-02-02T01:03:58;122.70;;;52.70;;
68577;SDS011;61668;45.388;11.784;2023-02-02T01:06:24;135.30;;;57.90;;
68577;SDS011;61668;45.388;11.784;2023-02-02T01:08:50;136.50;;;57.30;;
68577;SDS011;61668;45.388;11.784;2023-02-02T01:11:16;119.80;;;53.00;;
68577;SDS011;61668;45.388;11.784;2023-02-02T01:13:42;123.40;;;52.10;;
68577;SDS011;61668;45.388;11.784;2023-02-02T01:16:08;134.60;;;57.60;;
68577;SDS011;61668;45.388;11.784;2023-02-02T01:18:34;136.40;;;54.70;;
68577;SDS011;61668;45.388;11.784;2023-02-02T01:21:10;117.10;;;50.80;;
68577;SDS011;61668;45.388;11.784;2023-02-02T01:23:38;138.10;;;58.60;;
68577;SDS011;61668;45.388;11.784;2023-02-02T01:26:07;117.20;;;52.40;;
68577;SDS011;61668;45.388;11.784;2023-02-02T01:28:35;128.20;;;53.50;;
68577;SDS011;61668;45.388;11.784;2023-02-02T01:31:19;131.30;;;55.10;;
68577;SDS011;61668;45.388;11.784;2023-02-02T01:33:46;115.90;;;52.30;;
68577;SDS011;61668;45.388;11.784;2023-02-02T01:36:20;132.10;;;53.90;;
68577;SDS011;61668;45.388;11.784;2023-02-02T01:38:48;107.40;;;45.60;;
68577;SDS011;61668;45.388;11.784;2023-02-02T01:41:19;108.50;;;48.60;;
68577;SDS011;61668;45.388;11.784;2023-02-02T01:46:19;108.80;;;47.30;;
68577;SDS011;61668;45.388;11.784;2023-02-02T01:51:24;121.70;;;56.10;;
68577;SDS011;61668;45.388;11.784;2023-02-02T01:53:55;113.00;;;47.30;;
68577;SDS011;61668;45.388;11.784;2023-02-02T01:56:44;113.30;;;48.40;;
68577;SDS011;61668;45.388;11.784;2023-02-02T01:59:15;122.50;;;51.40;;
68577;SDS011;61668;45.388;11.784;2023-02-02T02:01:44;106.60;;;48.90;;
68577;SDS011;61668;45.388;11.784;2023-02-02T02:04:11;119.20;;;47.70;;
68577;SDS011;61668;45.388;11.784;2023-02-02T02:06:37;116.90;;;49.70;;
68577;SDS011;61668;45.388;11.784;2023-02-02T02:09:05;113.60;;;49.30;;
68577;SDS011;61668;45.388;11.784;2023-02-02T02:11:33;103.70;;;45.60;;
68577;SDS011;61668;45.388;11.784;2023-02-02T02:14:03;111.20;;;51.30;;
68577;SDS011;61668;45.388;11.784;2023-02-02T02:16:55;111.00;;;47.20;;
68577;SDS011;61668;45.388;11.784;2023-02-02T02:20:42;102.30;;;45.80;;
68577;SDS011;61668;45.388;11.784;2023-02-02T02:27:20;94.80;;;44.70;;
68577;SDS011;61668;45.388;11.784;2023-02-02T02:33:23;104.90;;;45.40;;
68577;SDS011;61668;45.388;11.784;2023-02-02T02:41:45;113.00;;;51.00;;
68577;SDS011;61668;45.388;11.784;2023-02-02T02:44:15;108.70;;;50.00;;
68577;SDS011;61668;45.388;11.784;2023-02-02T02:46:43;108.60;;;48.30;;
68577;SDS011;61668;45.388;11.784;2023-02-02T02:49:10;103.90;;;44.90;;
68577;SDS011;61668;45.388;11.784;2023-02-02T02:51:49;99.40;;;43.30;;
68577;SDS011;61668;45.388;11.784;2023-02-02T02:54:30;109.50;;;45.50;;
68577;SDS011;61668;45.388;11.784;2023-02-02T03:06:03;107.70;;;47.60;;
68577;SDS011;61668;45.388;11.784;2023-02-02T03:08:57;102.80;;;46.40;;
68577;SDS011;61668;45.388;11.784;2023-02-02T03:11:29;96.60;;;45.20;;
68577;SDS011;61668;45.388;11.784;2023-02-02T03:13:55;105.50;;;45.10;;
68577;SDS011;61668;45.388;11.784;2023-02-02T03:16:21;100.90;;;45.10;;
68577;SDS011;61668;45.388;11.784;2023-02-02T03:18:47;112.90;;;47.10;;
68577;SDS011;61668;45.388;11.784;2023-02-02T03:21:12;105.60;;;45.80;;
68577;SDS011;61668;45.388;11.784;2023-02-02T03:23:38;103.50;;;44.10;;
68577;SDS011;61668;45.388;11.784;2023-02-02T03:26:04;98.50;;;44.90;;
68577;SDS011;61668;45.388;11.784;2023-02-02T03:28:31;96.10;;;43.20;;
68577;SDS011;61668;45.388;11.784;2023-02-02T03:30:58;108.40;;;43.40;;
68577;SDS011;61668;45.388;11.784;2023-02-02T03:33:26;100.20;;;43.00;;
68577;SDS011;61668;45.388;11.784;2023-02-02T03:35:52;104.40;;;44.60;;
68577;SDS011;61668;45.388;11.784;2023-02-02T03:38:17;112.80;;;48.70;;
68577;SDS011;61668;45.388;11.784;2023-02-02T03:40:43;95.30;;;42.10;;
68577;SDS011;61668;45.388;11.784;2023-02-02T03:43:09;108.70;;;46.20;;
68577;SDS011;61668;45.388;11.784;2023-02-02T03:45:35;110.90;;;46.50;;
68577;SDS011;61668;45.388;11.784;2023-02-02T03:48:05;107.00;;;45.00;;
68577;SDS011;61668;45.388;11.784;2023-02-02T03:50:31;105.10;;;45.80;;
68577;SDS011;61668;45.388;11.784;2023-02-02T03:52:57;100.30;;;43.60;;
68577;SDS011;61668;45.388;11.784;2023-02-02T03:55:23;100.20;;;43.40;;
68577;SDS011;61668;45.388;11.784;2023-02-02T03:57:49;99.20;;;42.50;;
68577;SDS011;61668;45.388;11.784;2023-02-02T04:00:15;95.40;;;40.80;;
68577;SDS011;61668;45.388;11.784;2023-02-02T04:02:41;95.70;;;43.60;;
68577;SDS011;61668;45.388;11.784;2023-02-02T04:05:07;93.40;;;41.80;;
68577;SDS011;61668;45.388;11.784;2023-02-02T04:07:33;102.40;;;44.00;;
68577;SDS011;61668;45.388;11.784;2023-02-02T04:09:58;101.10;;;43.20;;
68577;SDS011;61668;45.388;11.784;2023-02-02T04:12:24;99.50;;;41.90;;
68577;SDS011;61668;45.388;11.784;2023-02-02T04:14:50;100.60;;;44.10;;
68577;SDS011;61668;45.388;11.784;2023-02-02T04:17:15;100.40;;;43.80;;
68577;SDS011;61668;45.388;11.784;2023-02-02T04:19:41;103.60;;;46.20;;
68577;SDS011;61668;45.388;11.784;2023-02-02T04:22:07;107.00;;;45.50;;
68577;SDS011;61668;45.388;11.784;2023-02-02T04:24:32;100.90;;;44.90;;
68577;SDS011;61668;45.388;11.784;2023-02-02T04:26:58;109.00;;;46.50;;
68577;SDS011;61668;45.388;11.784;2023-02-02T04:29:24;114.90;;;49.50;;
68577;SDS011;61668;45.388;11.784;2023-02-02T04:31:50;112.50;;;48.20;;
68577;SDS011;61668;45.388;11.784;2023-02-02T04:34:16;109.20;;;44.10;;
68577;SDS011;61668;45.388;11.784;2023-02-02T04:36:42;105.90;;;46.50;;
68577;SDS011;61668;45.388;11.784;2023-02-02T04:39:10;112.20;;;47.70;;
68577;SDS011;61668;45.388;11.784;2023-02-02T04:41:36;114.50;;;47.90;;
68577;SDS011;61668;45.388;11.784;2023-02-02T04:44:02;114.60;;;47.30;;
68577;SDS011;61668;45.388;11.784;2023-02-02T04:46:28;108.40;;;45.80;;
68577;SDS011;61668;45.388;11.784;2023-02-02T04:48:54;108.50;;;44.90;;
68577;SDS011;61668;45.388;11.784;2023-02-02T04:51:20;105.30;;;45.00;;
68577;SDS011;61668;45.388;11.784;2023-02-02T04:53:46;107.30;;;46.80;;
68577;SDS011;61668;45.388;11.784;2023-02-02T04:56:14;112.70;;;48.10;;
68577;SDS011;61668;45.388;11.784;2023-02-02T04:58:42;103.30;;;48.30;;
68577;SDS011;61668;45.388;11.784;2023-02-02T05:01:17;111.80;;;51.00;;
68577;SDS011;61668;45.388;11.784;2023-02-02T05:03:45;117.70;;;52.20;;
68577;SDS011;61668;45.388;11.784;2023-02-02T05:06:12;117.00;;;47.10;;
68577;SDS011;61668;45.388;11.784;2023-02-02T05:08:38;105.50;;;45.50;;
68577;SDS011;61668;45.388;11.784;2023-02-02T05:11:17;94.90;;;42.90;;
68577;SDS011;61668;45.388;11.784;2023-02-02T05:13:50;108.30;;;45.60;;
68577;SDS011;61668;45.388;11.784;2023-02-02T05:16:18;99.60;;;44.00;;
68577;SDS011;61668;45.388;11.784;2023-02-02T05:18:53;113.20;;;43.90;;
68577;SDS011;61668;45.388;11.784;2023-02-02T05:21:21;97.90;;;42.70;;
68577;SDS011;61668;45.388;11.784;2023-02-02T05:23:47;92.40;;;40.80;;
68577;SDS011;61668;45.388;11.784;2023-02-02T05:26:16;97.90;;;41.40;;
68577;SDS011;61668;45.388;11.784;2023-02-02T05:28:44;91.20;;;38.60;;
68577;SDS011;61668;45.388;11.784;2023-02-02T05:31:10;113.80;;;50.50;;
68577;SDS011;61668;45.388;11.784;2023-02-02T05:33:36;141.10;;;59.60;;
68577;SDS011;61668;45.388;11.784;2023-02-02T05:36:02;136.60;;;57.00;;
68577;SDS011;61668;45.388;11.784;2023-02-02T05:38:28;116.00;;;51.90;;
68577;SDS011;61668;45.388;11.784;2023-02-02T05:40:53;107.90;;;47.10;;
68577;SDS011;61668;45.388;11.784;2023-02-02T05:43:19;101.10;;;44.50;;
68577;SDS011;61668;45.388;11.784;2023-02-02T05:45:45;102.30;;;43.90;;
68577;SDS011;61668;45.388;11.784;2023-02-02T05:48:12;102.70;;;47.00;;
68577;SDS011;61668;45.388;11.784;2023-02-02T05:50:40;105.30;;;46.60;;
68577;SDS011;61668;45.388;11.784;2023-02-02T05:53:08;128.70;;;54.90;;
68577;SDS011;61668;45.388;11.784;2023-02-02T05:55:35;120.30;;;50.20;;
68577;SDS011;61668;45.388;11.784;2023-02-02T05:58:00;157.00;;;61.10;;
68577;SDS011;61668;45.388;11.784;2023-02-02T06:00:26;125.00;;;55.40;;
68577;SDS011;61668;45.388;11.784;2023-02-02T06:02:52;132.10;;;55.20;;
68577;SDS011;61668;45.388;11.784;2023-02-02T06:05:17;191.30;;;77.10;;
68577;SDS011;61668;45.388;11.784;2023-02-02T06:07:43;164.20;;;61.10;;
68577;SDS011;61668;45.388;11.784;2023-02-02T06:10:09;131.60;;;53.70;;
68577;SDS011;61668;45.388;11.784;2023-02-02T06:12:35;137.80;;;54.50;;
68577;SDS011;61668;45.388;11.784;2023-02-02T06:15:01;119.40;;;51.50;;
68577;SDS011;61668;45.388;11.784;2023-02-02T06:17:26;97.00;;;44.30;;
68577;SDS011;61668;45.388;11.784;2023-02-02T06:19:52;106.60;;;48.20;;
68577;SDS011;61668;45.388;11.784;2023-02-02T06:22:18;112.80;;;47.30;;
68577;SDS011;61668;45.388;11.784;2023-02-02T06:24:44;104.10;;;46.40;;
68577;SDS011;61668;45.388;11.784;2023-02-02T06:27:09;105.30;;;45.50;;
68577;SDS011;61668;45.388;11.784;2023-02-02T06:29:35;93.40;;;44.70;;
68577;SDS011;61668;45.388;11.784;2023-02-02T06:32:01;100.60;;;41.90;;
68577;SDS011;61668;45.388;11.784;2023-02-02T06:34:27;113.40;;;44.50;;
68577;SDS011;61668;45.388;11.784;2023-02-02T06:36:53;99.70;;;45.60;;
68577;SDS011;61668;45.388;11.784;2023-02-02T06:39:19;101.20;;;43.40;;
68577;SDS011;61668;45.388;11.784;2023-02-02T06:41:44;104.90;;;48.10;;
68577;SDS011;61668;45.388;11.784;2023-02-02T06:44:12;104.40;;;47.30;;
68577;SDS011;61668;45.388;11.784;2023-02-02T06:46:40;97.60;;;44.00;;
68577;SDS011;61668;45.388;11.784;2023-02-02T06:49:06;106.40;;;46.50;;
68577;SDS011;61668;45.388;11.784;2023-02-02T06:51:32;108.40;;;47.80;;
68577;SDS011;61668;45.388;11.784;2023-02-02T06:53:57;105.70;;;47.40;;
68577;SDS011;61668;45.388;11.784;2023-02-02T06:56:23;120.20;;;50.10;;
68577;SDS011;61668;45.388;11.784;2023-02-02T06:58:49;100.00;;;45.80;;
68577;SDS011;61668;45.388;11.784;2023-02-02T07:01:14;92.30;;;38.60;;
68577;SDS011;61668;45.388;11.784;2023-02-02T07:03:40;113.10;;;49.10;;
68577;SDS011;61668;45.388;11.784;2023-02-02T07:06:13;97.40;;;45.10;;
68577;SDS011;61668;45.388;11.784;2023-02-02T07:08:43;116.20;;;51.60;;
68577;SDS011;61668;45.388;11.784;2023-02-02T07:11:09;102.60;;;44.10;;
68577;SDS011;61668;45.388;11.784;2023-02-02T07:13:35;123.20;;;54.00;;
68577;SDS011;61668;45.388;11.784;2023-02-02T07:16:05;132.00;;;55.80;;
68577;SDS011;61668;45.388;11.784;2023-02-02T07:18:34;117.90;;;50.60;;
68577;SDS011;61668;45.388;11.784;2023-02-02T07:21:04;116.20;;;49.50;;
68577;SDS011;61668;45.388;11.784;2023-02-02T07:23:32;118.80;;;49.90;;
68577;SDS011;61668;45.388;11.784;2023-02-02T07:26:06;119.50;;;50.60;;
68577;SDS011;61668;45.388;11.784;2023-02-02T07:28:34;131.70;;;51.90;;
68577;SDS011;61668;45.388;11.784;2023-02-02T07:31:10;118.10;;;50.60;;
68577;SDS011;61668;45.388;11.784;2023-02-02T07:33:45;129.60;;;52.80;;
68577;SDS011;61668;45.388;11.784;2023-02-02T07:36:13;156.80;;;60.80;;
68577;SDS011;61668;45.388;11.784;2023-02-02T07:38:41;122.40;;;51.00;;
68577;SDS011;61668;45.388;11.784;2023-02-02T07:41:08;118.50;;;52.50;;
68577;SDS011;61668;45.388;11.784;2023-02-02T07:43:33;113.10;;;51.70;;
68577;SDS011;61668;45.388;11.784;2023-02-02T07:46:00;103.90;;;44.20;;
68577;SDS011;61668;45.388;11.784;2023-02-02T07:48:31;99.80;;;46.00;;
68577;SDS011;61668;45.388;11.784;2023-02-02T07:51:01;108.10;;;47.70;;
68577;SDS011;61668;45.388;11.784;2023-02-02T07:53:32;92.70;;;44.90;;
68577;SDS011;61668;45.388;11.784;2023-02-02T07:56:15;103.80;;;46.30;;
68577;SDS011;61668;45.388;11.784;2023-02-02T07:58:43;106.00;;;47.30;;
68577;SDS011;61668;45.388;11.784;2023-02-02T08:01:12;99.00;;;43.40;;
68577;SDS011;61668;45.388;11.784;2023-02-02T08:03:39;100.00;;;45.30;;
68577;SDS011;61668;45.388;11.784;2023-02-02T08:06:16;103.40;;;45.80;;
68577;SDS011;61668;45.388;11.784;2023-02-02T08:08:44;94.40;;;44.10;;
68577;SDS011;61668;45.388;11.784;2023-02-02T08:11:12;103.90;;;48.80;;
68577;SDS011;61668;45.388;11.784;2023-02-02T08:13:39;106.80;;;46.50;;
68577;SDS011;61668;45.388;11.784;2023-02-02T08:16:06;101.60;;;47.10;;
68577;SDS011;61668;45.388;11.784;2023-02-02T08:18:36;102.00;;;47.50;;
68577;SDS011;61668;45.388;11.784;2023-02-02T08:21:04;105.20;;;48.20;;
68577;SDS011;61668;45.388;11.784;2023-02-02T08:23:32;97.10;;;45.70;;
68577;SDS011;61668;45.388;11.784;2023-02-02T08:28:45;97.60;;;46.10;;
68577;SDS011;61668;45.388;11.784;2023-02-02T08:31:16;105.30;;;46.60;;
68577;SDS011;61668;45.388;11.784;2023-02-02T08:33:44;87.30;;;42.20;;
68577;SDS011;61668;45.388;11.784;2023-02-02T08:36:12;99.40;;;47.60;;
68577;SDS011;61668;45.388;11.784;2023-02-02T08:38:39;120.70;;;53.00;;
68577;SDS011;61668;45.388;11.784;2023-02-02T08:41:06;110.80;;;54.80;;
68577;SDS011;61668;45.388;11.784;2023-02-02T08:43:33;107.10;;;49.00;;
68577;SDS011;61668;45.388;11.784;2023-02-02T08:46:00;101.00;;;48.90;;
68577;SDS011;61668;45.388;11.784;2023-02-02T08:48:26;100.10;;;45.70;;
68577;SDS011;61668;45.388;11.784;2023-02-02T08:50:53;98.70;;;46.70;;
68577;SDS011;61668;45.388;11.784;2023-02-02T08:53:21;92.20;;;46.50;;
68577;SDS011;61668;45.388;11.784;2023-02-02T08:55:47;90.60;;;46.40;;
68577;SDS011;61668;45.388;11.784;2023-02-02T08:58:13;93.30;;;47.60;;
68577;SDS011;61668;45.388;11.784;2023-02-02T09:00:39;92.50;;;44.10;;
68577;SDS011;61668;45.388;11.784;2023-02-02T09:03:05;96.30;;;48.10;;
68577;SDS011;61668;45.388;11.784;2023-02-02T09:05:31;89.80;;;46.00;;
68577;SDS011;61668;45.388;11.784;2023-02-02T09:07:57;102.10;;;49.70;;
68577;SDS011;61668;45.388;11.784;2023-02-02T09:10:23;100.60;;;48.70;;
68577;SDS011;61668;45.388;11.784;2023-02-02T09:12:48;96.90;;;48.00;;
68577;SDS011;61668;45.388;11.784;2023-02-02T09:15:14;100.30;;;47.70;;
68577;SDS011;61668;45.388;11.784;2023-02-02T09:17:40;110.90;;;52.50;;
68577;SDS011;61668;45.388;11.784;2023-02-02T09:20:06;96.60;;;49.20;;
68577;SDS011;61668;45.388;11.784;2023-02-02T09:22:32;93.70;;;47.20;;
68577;SDS011;61668;45.388;11.784;2023-02-02T09:24:58;97.80;;;47.70;;
68577;SDS011;61668;45.388;11.784;2023-02-02T09:27:23;93.20;;;49.30;;
68577;SDS011;61668;45.388;11.784;2023-02-02T09:29:49;97.40;;;49.10;;
68577;SDS011;61668;45.388;11.784;2023-02-02T09:32:17;101.90;;;53.00;;
68577;SDS011;61668;45.388;11.784;2023-02-02T09:34:42;96.70;;;50.00;;
68577;SDS011;61668;45.388;11.784;2023-02-02T09:37:08;96.90;;;49.20;;
68577;SDS011;61668;45.388;11.784;2023-02-02T09:39:34;99.80;;;50.00;;
68577;SDS011;61668;45.388;11.784;2023-02-02T09:42:46;97.20;;;51.90;;
68577;SDS011;61668;45.388;11.784;2023-02-02T09:45:11;156.70;;;62.50;;
68577;SDS011;61668;45.388;11.784;2023-02-02T09:47:50;103.90;;;53.70;;
68577;SDS011;61668;45.388;11.784;2023-02-02T09:53:07;123.70;;;56.20;;
68577;SDS011;61668;45.388;11.784;2023-02-02T09:55:51;110.60;;;54.00;;
68577;SDS011;61668;45.388;11.784;2023-02-02T09:58:48;151.50;;;65.60;;
68577;SDS011;61668;45.388;11.784;2023-02-02T10:06:42;101.30;;;51.00;;
68577;SDS011;61668;45.388;11.784;2023-02-02T10:18:03;118.70;;;59.60;;
68577;SDS011;61668;45.388;11.784;2023-02-02T10:21:01;107.20;;;54.30;;
68577;SDS011;61668;45.388;11.784;2023-02-02T10:26:18;115.30;;;58.10;;
68577;SDS011;61668;45.388;11.784;2023-02-02T10:34:52;122.80;;;62.20;;
68577;SDS011;61668;45.388;11.784;2023-02-02T10:38:06;117.20;;;55.40;;
68577;SDS011;61668;45.388;11.784;2023-02-02T10:46:32;122.90;;;53.90;;
68577;SDS011;61668;45.388;11.784;2023-02-02T10:52:15;98.60;;;47.50;;
68577;SDS011;61668;45.388;11.784;2023-02-02T10:55:16;115.20;;;54.80;;
68577;SDS011;61668;45.388;11.784;2023-02-02T11:03:13;110.20;;;52.60;;
68577;SDS011;61668;45.388;11.784;2023-02-02T11:05:39;108.10;;;49.80;;
68577;SDS011;61668;45.388;11.784;2023-02-02T11:08:35;120.40;;;57.90;;
68577;SDS011;61668;45.388;11.784;2023-02-02T11:11:19;110.60;;;54.20;;
68577;SDS011;61668;45.388;11.784;2023-02-02T11:13:48;112.70;;;52.80;;
68577;SDS011;61668;45.388;11.784;2023-02-02T11:16:26;111.80;;;54.70;;
68577;SDS011;61668;45.388;11.784;2023-02-02T11:18:53;123.90;;;59.10;;
68577;SDS011;61668;45.388;11.784;2023-02-02T11:29:16;123.80;;;57.90;;
68577;SDS011;61668;45.388;11.784;2023-02-02T11:31:52;119.60;;;56.60;;
68577;SDS011;61668;45.388;11.784;2023-02-02T11:34:26;120.30;;;55.40;;
68577;SDS011;61668;45.388;11.784;2023-02-02T11:37:14;119.50;;;56.00;;
68577;SDS011;61668;45.388;11.784;2023-02-02T11:39:45;126.10;;;56.80;;
68577;SDS011;61668;45.388;11.784;2023-02-02T11:42:19;122.30;;;60.20;;
68577;SDS011;61668;45.388;11.784;2023-02-02T11:44:53;115.20;;;58.30;;
68577;SDS011;61668;45.388;11.784;2023-02-02T11:47:29;123.00;;;58.00;;
68577;SDS011;61668;45.388;11.784;2023-02-02T11:49:59;119.70;;;57.80;;
68577;SDS011;61668;45.388;11.784;2023-02-02T11:52:30;121.80;;;57.40;;
68577;SDS011;61668;45.388;11.784;2023-02-02T11:55:08;115.30;;;56.90;;
68577;SDS011;61668;45.388;11.784;2023-02-02T11:57:39;117.70;;;55.80;;
68577;SDS011;61668;45.388;11.784;2023-02-02T12:00:22;116.80;;;58.10;;
68577;SDS011;61668;45.388;11.784;2023-02-02T12:02:51;116.20;;;57.50;;
68577;SDS011;61668;45.388;11.784;2023-02-02T12:07:47;112.90;;;55.80;;
68577;SDS011;61668;45.388;11.784;2023-02-02T12:13:49;115.70;;;58.50;;
68577;SDS011;61668;45.388;11.784;2023-02-02T12:16:50;118.70;;;55.60;;
68577;SDS011;61668;45.388;11.784;2023-02-02T12:30:58;113.20;;;55.90;;
68577;SDS011;61668;45.388;11.784;2023-02-02T12:36:35;116.30;;;55.50;;
68577;SDS011;61668;45.388;11.784;2023-02-02T12:46:05;106.50;;;51.90;;
68577;SDS011;61668;45.388;11.784;2023-02-02T13:00:54;114.30;;;56.10;;
68577;SDS011;61668;45.388;11.784;2023-02-02T13:03:42;103.30;;;49.30;;
68577;SDS011;61668;45.388;11.784;2023-02-02T13:09:48;108.30;;;52.10;;
68577;SDS011;61668;45.388;11.784;2023-02-02T13:12:23;119.60;;;68.90;;
68577;SDS011;61668;45.388;11.784;2023-02-02T13:15:03;110.40;;;52.60;;
68577;SDS011;61668;45.388;11.784;2023-02-02T13:23:07;107.50;;;51.10;;
68577;SDS011;61668;45.388;11.784;2023-02-02T13:25:49;108.50;;;52.20;;
68577;SDS011;61668;45.388;11.784;2023-02-02T13:31:22;107.90;;;53.50;;
68577;SDS011;61668;45.388;11.784;2023-02-02T13:36:43;114.40;;;57.10;;
68577;SDS011;61668;45.388;11.784;2023-02-02T13:39:23;115.70;;;57.50;;
68577;SDS011;61668;45.388;11.784;2023-02-02T13:42:01;115.40;;;55.20;;
68577;SDS011;61668;45.388;11.784;2023-02-02T13:44:38;101.60;;;50.80;;
68577;SDS011;61668;45.388;11.784;2023-02-02T13:47:09;108.50;;;54.40;;
68577;SDS011;61668;45.388;11.784;2023-02-02T13:49:52;108.20;;;54.50;;
68577;SDS011;61668;45.388;11.784;2023-02-02T14:01:33;95.30;;;49.20;;
68577;SDS011;61668;45.388;11.784;2023-02-02T14:03:59;107.10;;;51.30;;
68577;SDS011;61668;45.388;11.784;2023-02-02T14:06:26;113.30;;;57.10;;
68577;SDS011;61668;45.388;11.784;2023-02-02T14:09:03;99.60;;;47.90;;
68577;SDS011;61668;45.388;11.784;2023-02-02T14:11:36;117.60;;;61.50;;
68577;SDS011;61668;45.388;11.784;2023-02-02T14:14:15;118.10;;;60.70;;
68577;SDS011;61668;45.388;11.784;2023-02-02T14:24:36;103.80;;;51.30;;
68577;SDS011;61668;45.388;11.784;2023-02-02T14:34:59;115.20;;;55.80;;
68577;SDS011;61668;45.388;11.784;2023-02-02T14:41:05;115.60;;;55.60;;
68577;SDS011;61668;45.388;11.784;2023-02-02T14:44:14;122.40;;;56.60;;
68577;SDS011;61668;45.388;11.784;2023-02-02T14:46:40;114.60;;;55.50;;
68577;SDS011;61668;45.388;11.784;2023-02-02T14:49:21;117.50;;;57.30;;
68577;SDS011;61668;45.388;11.784;2023-02-02T14:51:52;114.00;;;58.60;;
68577;SDS011;61668;45.388;11.784;2023-02-02T14:54:30;108.80;;;57.20;;
68577;SDS011;61668;45.388;11.784;2023-02-02T14:57:16;115.50;;;58.30;;
68577;SDS011;61668;45.388;11.784;2023-02-02T14:59:46;117.90;;;58.00;;
68577;SDS011;61668;45.388;11.784;2023-02-02T15:02:30;122.70;;;64.70;;
68577;SDS011;61668;45.388;11.784;2023-02-02T15:08:26;115.20;;;59.20;;
68577;SDS011;61668;45.388;11.784;2023-02-02T15:11:06;110.80;;;57.60;;
68577;SDS011;61668;45.388;11.784;2023-02-02T15:14:02;116.90;;;55.50;;
68577;SDS011;61668;45.388;11.784;2023-02-02T15:16:32;115.90;;;56.20;;
68577;SDS011;61668;45.388;11.784;2023-02-02T15:19:14;126.20;;;64.10;;
68577;SDS011;61668;45.388;11.784;2023-02-02T15:21:48;119.30;;;58.60;;
68577;SDS011;61668;45.388;11.784;2023-02-02T15:24:20;118.60;;;56.90;;
68577;SDS011;61668;45.388;11.784;2023-02-02T15:26:49;121.80;;;58.40;;
68577;SDS011;61668;45.388;11.784;2023-02-02T15:29:42;123.20;;;59.70;;
68577;SDS011;61668;45.388;11.784;2023-02-02T15:32:18;115.60;;;58.60;;
68577;SDS011;61668;45.388;11.784;2023-02-02T15:34:49;125.60;;;62.50;;
68577;SDS011;61668;45.388;11.784;2023-02-02T15:37:29;214.30;;;91.50;;
68577;SDS011;61668;45.388;11.784;2023-02-02T15:40:01;126.90;;;60.90;;
68577;SDS011;61668;45.388;11.784;2023-02-02T15:42:41;117.90;;;60.50;;
68577;SDS011;61668;45.388;11.784;2023-02-02T15:47:53;107.90;;;53.80;;
68577;SDS011;61668;45.388;11.784;2023-02-02T15:50:20;112.00;;;56.80;;
68577;SDS011;61668;45.388;11.784;2023-02-02T15:52:48;121.00;;;60.50;;
68577;SDS011;61668;45.388;11.784;2023-02-02T15:55:30;113.10;;;54.50;;
68577;SDS011;61668;45.388;11.784;2023-02-02T15:57:58;116.80;;;55.40;;
68577;SDS011;61668;45.388;11.784;2023-02-02T16:00:31;116.70;;;58.30;;
68577;SDS011;61668;45.388;11.784;2023-02-02T16:05:45;118.60;;;59.40;;
68577;SDS011;61668;45.388;11.784;2023-02-02T16:08:32;129.70;;;59.40;;
68577;SDS011;61668;45.388;11.784;2023-02-02T16:11:20;112.30;;;57.10;;
68577;SDS011;61668;45.388;11.784;2023-02-02T16:16:24;124.40;;;58.00;;
68577;SDS011;61668;45.388;11.784;2023-02-02T16:21:31;116.80;;;57.10;;
68577;SDS011;61668;45.388;11.784;2023-02-02T16:23:57;125.50;;;62.10;;
68577;SDS011;61668;45.388;11.784;2023-02-02T16:26:26;123.70;;;56.20;;
68577;SDS011;61668;45.388;11.784;2023-02-02T16:28:54;122.20;;;58.40;;
68577;SDS011;61668;45.388;11.784;2023-02-02T16:31:20;127.00;;;60.60;;
68577;SDS011;61668;45.388;11.784;2023-02-02T16:33:46;120.60;;;56.30;;
68577;SDS011;61668;45.388;11.784;2023-02-02T16:36:28;131.10;;;61.50;;
68577;SDS011;61668;45.388;11.784;2023-02-02T16:38:55;125.10;;;59.20;;
68577;SDS011;61668;45.388;11.784;2023-02-02T16:41:32;118.20;;;58.60;;
68577;SDS011;61668;45.388;11.784;2023-02-02T16:46:55;139.10;;;61.30;;
68577;SDS011;61668;45.388;11.784;2023-02-02T16:49:23;127.90;;;61.20;;
68577;SDS011;61668;45.388;11.784;2023-02-02T16:52:11;143.90;;;69.90;;
68577;SDS011;61668;45.388;11.784;2023-02-02T16:54:49;129.00;;;63.90;;
68577;SDS011;61668;45.388;11.784;2023-02-02T16:57:24;129.50;;;62.80;;
68577;SDS011;61668;45.388;11.784;2023-02-02T16:59:57;129.30;;;59.50;;
68577;SDS011;61668;45.388;11.784;2023-02-02T17:02:28;136.20;;;61.10;;
68577;SDS011;61668;45.388;11.784;2023-02-02T17:07:29;140.30;;;65.90;;
68577;SDS011;61668;45.388;11.784;2023-02-02T17:10:29;134.30;;;63.60;;
68577;SDS011;61668;45.388;11.784;2023-02-02T17:12:59;131.70;;;62.20;;
68577;SDS011;61668;45.388;11.784;2023-02-02T17:15:34;132.90;;;61.10;;
68577;SDS011;61668;45.388;11.784;2023-02-02T17:18:01;128.10;;;61.80;;
68577;SDS011;61668;45.388;11.784;2023-02-02T17:20:29;131.10;;;61.50;;
68577;SDS011;61668;45.388;11.784;2023-02-02T17:22:57;133.20;;;62.60;;